createdAt,value
2023-05-10T06:39:26.727Z,0
2023-05-10T06:42:46.515Z,2
2023-05-10T06:44:31.683Z,3
2023-05-10T06:47:22.532Z,1
2023-05-10T06:49:01.275Z,1
2023-05-10T06:50:44.795Z,6
2023-05-10T06:52:31.548Z,7
2023-05-10T06:54:26.373Z,2
2023-05-10T06:58:41.539Z,2
2023-05-10T07:00:27.531Z,1
2023-05-10T07:01:31.742Z,2
2023-05-10T07:02:23.950Z,3
2023-05-10T07:03:33.555Z,2
2023-05-10T07:04:50.150Z,2
2023-05-10T07:07:46.270Z,3
2023-05-10T07:09:29.232Z,3
2023-05-10T07:10:20.853Z,3
2023-05-10T07:11:57.127Z,3
2023-05-10T07:15:28.713Z,2
2023-05-10T07:17:24.223Z,4
2023-05-10T07:18:44.389Z,5
2023-05-10T07:19:53.756Z,5
2023-05-10T07:20:38.029Z,3
2023-05-10T07:21:40.733Z,0
2023-05-10T07:24:29.726Z,6
2023-05-10T07:25:21.242Z,3
2023-05-10T07:26:41.817Z,1
2023-05-10T07:29:38.647Z,3
2023-05-10T07:31:21.679Z,4
2023-05-10T07:35:45.691Z,2
2023-05-10T07:36:41.733Z,4
2023-05-10T07:41:21.850Z,4
2023-05-10T07:42:32.841Z,3
2023-05-10T07:43:26.279Z,1
2023-05-10T07:44:21.866Z,1
2023-05-10T07:45:32.194Z,0
2023-05-10T07:49:30.159Z,9
2023-05-10T07:50:42.401Z,3
2023-05-10T07:51:37.819Z,2
2023-05-10T07:52:34.060Z,3
2023-05-10T07:55:23.526Z,4
2023-05-10T07:57:55.420Z,0
2023-05-10T08:01:25.411Z,0
2023-05-10T08:02:27.617Z,0
2023-05-10T08:03:20.502Z,0
2023-05-10T08:05:40.331Z,2
2023-05-10T08:08:30.187Z,0
2023-05-10T08:10:27.109Z,2
2023-05-10T08:12:51.550Z,1
2023-05-10T08:13:48.489Z,0
2023-05-10T08:14:41.413Z,0
2023-05-10T08:15:25.575Z,4
2023-05-10T08:16:22.257Z,4
2023-05-10T08:17:28.902Z,3
2023-05-10T08:18:23.636Z,4
2023-05-10T08:19:59.153Z,5
2023-05-10T08:21:28.888Z,4
2023-05-10T08:27:31.781Z,4
2023-05-10T08:33:22.388Z,0
2023-05-10T08:35:24.643Z,1
2023-05-10T08:36:46.625Z,2
2023-05-10T08:37:21.583Z,1
2023-05-10T08:38:32.598Z,1
2023-05-10T08:39:30.689Z,4
2023-05-10T08:40:26.379Z,2
2023-05-10T08:43:22.263Z,2
2023-05-10T08:44:35.671Z,3
2023-05-10T08:45:36.230Z,1
2023-05-10T08:48:23.609Z,1
2023-05-10T08:49:28.485Z,2
2023-05-10T08:59:29.944Z,1
2023-05-10T09:00:24.626Z,2
2023-05-10T09:01:31.961Z,0
2023-05-10T09:02:23.155Z,2
2023-05-10T09:03:25.293Z,1
2023-05-10T09:04:25.221Z,1
2023-05-10T09:05:33.689Z,1
2023-05-10T09:06:31.821Z,0
2023-05-10T09:07:26.307Z,0
2023-05-10T09:08:23.729Z,0
2023-05-10T09:09:28.768Z,0
2023-05-10T09:10:20.358Z,0
2023-05-10T09:11:23.805Z,4
2023-05-10T09:12:34.717Z,1
2023-05-10T09:13:30.220Z,0
2023-05-10T09:14:27.725Z,2
2023-05-10T09:15:22.679Z,5
2023-05-10T09:16:31.556Z,2
2023-05-10T09:18:27.833Z,0
2023-05-10T09:19:36.504Z,2
2023-05-10T09:20:30.021Z,3
2023-05-10T09:21:41.850Z,2
2023-05-10T09:22:42.679Z,2
2023-05-10T09:24:29.911Z,8
2023-05-10T09:25:23.790Z,2
2023-05-10T09:26:24.690Z,2
2023-05-10T09:27:29.630Z,1
2023-05-10T09:28:22.086Z,3
2023-05-10T09:30:40.619Z,3
2023-05-10T09:31:33.568Z,3
2023-05-10T09:33:19.969Z,1
2023-05-10T09:34:20.064Z,0
2023-05-10T09:35:28.725Z,0
2023-05-10T09:36:30.096Z,4
2023-05-10T09:37:33.849Z,6
2023-05-10T09:38:27.966Z,6
2023-05-10T09:39:24.027Z,4
2023-05-10T09:40:24.116Z,1
2023-05-10T09:41:24.964Z,4
2023-05-10T09:44:49.914Z,4
2023-05-10T09:46:42.793Z,3
2023-05-10T09:47:29.097Z,6
2023-05-10T09:48:21.080Z,5
2023-05-10T09:49:20.835Z,3
2023-05-10T09:51:21.234Z,4
2023-05-10T09:54:20.747Z,0
2023-05-10T09:55:24.455Z,0
2023-05-10T09:56:24.772Z,2
2023-05-10T09:58:47.916Z,0
2023-05-10T09:59:30.190Z,0
2023-05-10T10:00:44.966Z,0
2023-05-10T10:01:37.304Z,3
2023-05-10T10:02:25.675Z,2
2023-05-10T10:03:21.840Z,1
2023-05-10T10:04:21.478Z,2
2023-05-10T10:05:29.036Z,3
2023-05-10T10:06:30.337Z,2
2023-05-10T10:07:24.302Z,2
2023-05-10T10:08:32.459Z,2
2023-05-10T10:09:32.536Z,0
2023-05-10T10:10:26.224Z,5
2023-05-10T10:11:22.078Z,2
2023-05-10T10:12:32.133Z,3
2023-05-10T10:13:23.255Z,4
2023-05-10T10:14:39.545Z,2
2023-05-10T10:15:35.609Z,2
2023-05-10T10:16:25.726Z,1
2023-05-10T10:17:26.268Z,1
2023-05-10T10:18:23.061Z,0
2023-05-10T10:19:23.066Z,0
2023-05-10T10:20:20.727Z,1
2023-05-10T10:21:26.389Z,3
2023-05-10T10:22:20.933Z,3
2023-05-10T10:23:28.442Z,4
2023-05-10T10:24:21.565Z,2
2023-05-10T10:25:22.403Z,1
2023-05-10T10:26:20.494Z,0
2023-05-10T10:27:19.762Z,0
2023-05-10T10:28:26.086Z,2
2023-05-10T10:29:19.970Z,3
2023-05-10T10:30:24.543Z,3
2023-05-10T10:31:27.994Z,0
2023-05-10T10:32:30.864Z,0
2023-05-10T10:33:28.961Z,0
2023-05-10T10:34:23.301Z,2
2023-05-10T10:35:23.833Z,3
2023-05-10T10:36:20.235Z,0
2023-05-10T10:37:30.192Z,0
2023-05-10T10:38:26.109Z,1
2023-05-10T10:39:23.871Z,2
2023-05-10T10:40:28.953Z,1
2023-05-10T10:41:23.341Z,0
2023-05-10T10:42:20.248Z,0
2023-05-10T10:43:21.002Z,1
2023-05-10T10:44:32.155Z,1
2023-05-10T10:45:26.213Z,1
2023-05-10T10:46:21.864Z,1
2023-05-10T10:47:28.668Z,4
2023-05-10T10:48:30.356Z,4
2023-05-10T10:49:25.416Z,1
2023-05-10T10:50:20.181Z,1
2023-05-10T10:51:31.203Z,0
2023-05-10T10:52:25.638Z,0
2023-05-10T10:53:23.513Z,2
2023-05-10T10:54:39.429Z,2
2023-05-10T10:55:31.802Z,1
2023-05-10T10:56:23.721Z,3
2023-05-10T10:57:21.321Z,1
2023-05-10T10:58:23.579Z,0
2023-05-10T10:59:26.452Z,1
2023-05-10T11:00:22.229Z,0
2023-05-10T11:01:34.069Z,1
2023-05-10T11:02:30.069Z,2
2023-05-10T11:03:24.879Z,3
2023-05-10T11:04:30.843Z,1
2023-05-10T11:05:30.335Z,1
2023-05-10T11:06:28.238Z,2
2023-05-10T11:07:23.106Z,1
2023-05-10T11:08:32.419Z,0
2023-05-10T11:09:22.348Z,0
2023-05-10T11:10:24.504Z,0
2023-05-10T11:11:22.876Z,0
2023-05-10T11:12:23.354Z,0
2023-05-10T11:13:26.301Z,2
2023-05-10T11:14:24.187Z,0
2023-05-10T11:15:25.526Z,1
2023-05-10T11:16:29.580Z,0
2023-05-10T11:17:24.429Z,0
2023-05-10T11:18:20.456Z,0
2023-05-10T11:19:21.826Z,0
2023-05-10T11:20:20.879Z,0
2023-05-10T11:21:22.149Z,0
2023-05-10T11:22:34.697Z,0
2023-05-10T11:23:29.937Z,0
2023-05-10T11:24:25.597Z,0
2023-05-10T11:25:21.522Z,0
2023-05-10T11:26:22.757Z,0
2023-05-10T11:27:25.920Z,1
2023-05-10T11:28:22.328Z,2
2023-05-10T11:29:33.250Z,0
2023-05-10T11:30:28.183Z,0
2023-05-10T11:31:24.902Z,0
2023-05-10T11:32:20.577Z,1
2023-05-10T11:33:30.281Z,1
2023-05-10T11:34:23.584Z,3
2023-05-10T11:35:22.101Z,4
2023-05-10T11:36:34.241Z,0
2023-05-10T11:37:20.407Z,0
2023-05-10T11:38:25.564Z,0
2023-05-10T11:39:20.354Z,2
2023-05-10T11:40:29.970Z,3
2023-05-10T11:41:26.924Z,2
2023-05-10T11:42:24.268Z,0
2023-05-10T11:43:25.708Z,0
2023-05-10T11:44:28.153Z,0
2023-05-10T11:45:24.271Z,0
2023-05-10T11:46:21.619Z,0
2023-05-10T11:47:30.808Z,0
2023-05-10T11:48:26.275Z,0
2023-05-10T11:49:26.029Z,0
2023-05-10T11:50:21.291Z,0
2023-05-10T11:51:27.987Z,0
2023-05-10T11:52:24.866Z,0
2023-05-10T11:53:20.178Z,0
2023-05-10T11:54:22.957Z,0
2023-05-10T11:55:25.913Z,0
2023-05-10T11:56:22.272Z,0
2023-05-10T11:57:28.199Z,0
2023-05-10T11:58:28.208Z,0
2023-05-10T11:59:24.026Z,0
2023-05-10T12:00:22.077Z,0
2023-05-10T12:01:31.510Z,0
2023-05-10T12:02:40.314Z,0
2023-05-10T12:03:23.489Z,0
2023-05-10T12:04:26.279Z,0
2023-05-10T12:05:23.333Z,0
2023-05-10T12:06:23.791Z,0
2023-05-10T12:07:19.952Z,0
2023-05-10T12:08:30.379Z,0
2023-05-10T12:09:42.716Z,0
2023-05-10T12:10:21.903Z,0
2023-05-10T12:11:23.269Z,0
2023-05-10T12:12:23.218Z,0
2023-05-10T12:13:19.502Z,0
2023-05-10T12:14:20.012Z,0
2023-05-10T12:15:30.307Z,2
2023-05-10T12:16:28.151Z,6
2023-05-10T12:17:23.312Z,4
2023-05-10T12:18:34.756Z,6
2023-05-10T12:19:30.419Z,6
2023-05-10T12:20:20.453Z,3
2023-05-10T12:21:21.307Z,3
2023-05-10T12:22:20.846Z,1
2023-05-10T12:23:26.623Z,2
2023-05-10T12:24:22.472Z,0
2023-05-10T12:25:33.563Z,0
2023-05-10T12:26:28.196Z,0
2023-05-10T12:27:28.630Z,0
2023-05-10T12:28:21.454Z,0
2023-05-10T12:29:31.531Z,0
2023-05-10T12:30:22.547Z,0
2023-05-10T12:31:24.167Z,0
2023-05-10T12:32:33.873Z,0
2023-05-10T12:33:28.493Z,0
2023-05-10T12:34:24.309Z,0
2023-05-10T12:35:24.441Z,0
2023-05-10T12:36:32.963Z,0
2023-05-10T12:37:26.350Z,0
2023-05-10T12:38:22.510Z,0
2023-05-10T12:39:24.766Z,0
2023-05-10T12:40:28.900Z,0
2023-05-10T12:41:24.513Z,0
2023-05-10T12:42:30.480Z,0
2023-05-10T12:43:22.820Z,0
2023-05-10T12:44:27.000Z,0
2023-05-10T12:45:22.255Z,0
2023-05-10T12:46:32.198Z,0
2023-05-10T12:47:28.829Z,0
2023-05-10T12:48:25.780Z,0
2023-05-10T12:49:20.313Z,0
2023-05-10T12:50:26.675Z,0
2023-05-10T12:51:26.152Z,0
2023-05-10T12:52:22.397Z,0
2023-05-10T12:53:32.784Z,0
2023-05-10T12:54:28.089Z,0
2023-05-10T12:55:24.302Z,0
2023-05-10T12:56:20.344Z,0
2023-05-10T12:57:30.104Z,0
2023-05-10T12:58:36.028Z,0
2023-05-10T12:59:23.332Z,0
2023-05-10T13:00:32.497Z,0
2023-05-10T13:01:28.034Z,0
2023-05-10T13:02:24.683Z,0
2023-05-10T13:03:21.479Z,0
2023-05-10T13:04:36.011Z,0
2023-05-10T13:05:26.524Z,0
2023-05-10T13:06:22.118Z,0
2023-05-10T13:07:21.563Z,0
2023-05-10T13:08:30.524Z,0
2023-05-10T13:09:24.224Z,0
2023-05-10T13:10:21.932Z,0
2023-05-10T13:11:30.983Z,0
2023-05-10T13:12:31.306Z,0
2023-05-10T13:13:28.346Z,0
2023-05-10T13:14:32.214Z,0
2023-05-10T13:15:28.135Z,0
2023-05-10T13:16:25.343Z,0
2023-05-10T13:17:20.635Z,0
2023-05-10T13:18:30.653Z,0
2023-05-10T13:19:26.559Z,0
2023-05-10T13:20:22.000Z,0
2023-05-10T13:21:21.586Z,0
2023-05-10T13:22:39.293Z,0
2023-05-10T13:23:39.695Z,0
2023-05-10T13:24:21.922Z,0
2023-05-10T13:25:30.555Z,1
2023-05-10T13:26:26.239Z,5
2023-05-10T13:27:23.673Z,6
2023-05-10T13:28:24.350Z,4
2023-05-10T13:29:28.448Z,1
2023-05-10T13:30:24.595Z,0
2023-05-10T13:31:20.182Z,0
2023-05-10T13:32:30.322Z,0
2023-05-10T13:33:27.446Z,1
2023-05-10T13:34:22.428Z,1
2023-05-10T13:35:21.541Z,0
2023-05-10T13:36:21.423Z,0
2023-05-10T13:37:24.862Z,0
2023-05-10T13:38:22.538Z,0
2023-05-10T13:39:30.859Z,0
2023-05-10T13:40:28.314Z,0
2023-05-10T13:41:22.355Z,0
2023-05-10T13:42:31.923Z,0
2023-05-10T13:43:28.316Z,0
2023-05-10T13:44:24.304Z,0
2023-05-10T13:45:21.920Z,0
2023-05-10T13:46:30.206Z,0
2023-05-10T13:47:27.953Z,0
2023-05-10T13:48:22.974Z,0
2023-05-10T13:49:34.008Z,2
2023-05-10T13:50:29.242Z,4
2023-05-10T13:51:25.210Z,1
2023-05-10T13:52:22.126Z,0
2023-05-10T13:53:32.189Z,1
2023-05-10T13:54:26.176Z,0
2023-05-10T13:55:24.250Z,0
2023-05-10T13:56:34.494Z,1
2023-05-10T13:57:20.318Z,2
2023-05-10T13:58:28.430Z,1
2023-05-10T13:59:20.680Z,0
2023-05-10T14:00:30.988Z,0
2023-05-10T14:01:27.390Z,0
2023-05-10T14:02:22.373Z,0
2023-05-10T14:03:34.651Z,0
2023-05-10T14:04:27.850Z,0
2023-05-10T14:05:26.273Z,0
2023-05-10T14:06:23.568Z,0
2023-05-10T14:07:31.621Z,1
2023-05-10T14:08:26.053Z,2
2023-05-10T14:09:24.600Z,0
2023-05-10T14:10:32.498Z,2
2023-05-10T14:11:29.639Z,1
2023-05-10T14:12:23.896Z,0
2023-05-10T14:13:20.187Z,0
2023-05-10T14:14:20.514Z,0
2023-05-10T14:15:21.915Z,0
2023-05-10T14:16:22.263Z,0
2023-05-10T14:17:33.044Z,0
2023-05-10T14:18:30.992Z,0
2023-05-10T14:19:24.124Z,0
2023-05-10T14:20:21.165Z,0
2023-05-10T14:21:24.442Z,0
2023-05-10T14:22:23.716Z,0
2023-05-10T14:23:23.391Z,0
2023-05-10T14:24:33.077Z,1
2023-05-10T14:25:28.458Z,1
2023-05-10T14:26:28.105Z,0
2023-05-10T14:27:20.176Z,0
2023-05-10T14:28:30.420Z,0
2023-05-10T14:29:21.334Z,0
2023-05-10T14:30:22.045Z,0
2023-05-10T14:31:33.130Z,0
2023-05-10T14:32:33.896Z,0
2023-05-10T14:33:21.303Z,0
2023-05-10T14:34:21.288Z,0
2023-05-10T14:35:34.041Z,0
2023-05-10T14:36:26.331Z,1
2023-05-10T14:37:23.060Z,0
2023-05-10T14:38:32.949Z,0
2023-05-10T14:39:29.219Z,0
2023-05-10T14:40:24.393Z,0
2023-05-10T14:41:20.345Z,0
2023-05-10T14:42:30.091Z,0
2023-05-10T14:43:33.848Z,0
2023-05-10T14:44:23.482Z,0
2023-05-10T14:45:32.331Z,0
2023-05-10T14:46:30.312Z,0
2023-05-10T14:47:24.423Z,0
2023-05-10T14:48:22.284Z,0
2023-05-10T14:49:30.262Z,0
2023-05-10T14:50:36.386Z,0
2023-05-10T14:51:25.150Z,0
2023-05-10T14:52:20.029Z,0
2023-05-10T14:53:30.517Z,0
2023-05-10T14:54:27.047Z,0
2023-05-10T14:55:21.943Z,0
2023-05-10T14:56:32.797Z,0
2023-05-10T14:57:26.240Z,0
2023-05-10T14:58:22.404Z,0
2023-05-10T14:59:24.750Z,0
2023-05-10T15:00:30.446Z,0
2023-05-10T15:01:24.359Z,0
2023-05-10T15:02:22.011Z,0
2023-05-10T15:03:31.521Z,0
2023-05-10T15:04:28.387Z,0
2023-05-10T15:05:23.448Z,0
2023-05-10T15:06:29.334Z,0
2023-05-10T15:07:21.769Z,0
2023-05-10T15:08:25.331Z,0
2023-05-10T15:09:21.237Z,0
2023-05-10T15:10:30.911Z,0
2023-05-10T15:11:28.888Z,0
2023-05-10T15:12:22.249Z,0
2023-05-10T15:13:32.885Z,0
2023-05-10T15:14:29.872Z,0
2023-05-10T15:15:24.624Z,0
2023-05-10T15:16:20.462Z,0
2023-05-10T15:17:33.743Z,0
2023-05-10T15:18:26.253Z,0
2023-05-10T15:19:24.544Z,0
2023-05-10T15:20:38.549Z,0
2023-05-10T15:21:30.596Z,0
2023-05-10T15:22:26.751Z,0
2023-05-10T15:23:20.256Z,0
2023-05-10T15:24:31.182Z,0
2023-05-10T15:25:27.218Z,0
2023-05-10T15:26:22.363Z,0
2023-05-10T15:27:32.556Z,0
2023-05-10T15:28:29.049Z,0
2023-05-10T15:29:26.604Z,0
2023-05-10T15:30:21.699Z,0
2023-05-10T15:31:32.645Z,0
2023-05-10T15:32:26.761Z,0
2023-05-10T15:33:24.380Z,0
2023-05-10T15:34:37.089Z,0
2023-05-10T15:35:28.563Z,0
2023-05-10T15:36:25.414Z,0
2023-05-10T15:37:24.467Z,0
2023-05-10T15:38:30.301Z,0
2023-05-10T15:39:26.870Z,0
2023-05-10T15:40:24.289Z,0
2023-05-10T15:41:34.001Z,0
2023-05-10T15:42:28.219Z,0
2023-05-10T15:43:24.815Z,0
2023-05-10T15:44:20.044Z,0
2023-05-10T15:45:23.151Z,0
2023-05-10T15:46:26.459Z,0
2023-05-10T15:47:24.320Z,0
2023-05-10T15:48:34.146Z,0
2023-05-10T15:49:28.439Z,0
2023-05-10T15:50:26.349Z,0
2023-05-10T15:51:20.944Z,0
2023-05-10T15:52:26.326Z,0
2023-05-10T15:53:52.732Z,0
2023-05-10T15:54:22.756Z,0
2023-05-10T15:55:34.181Z,0
2023-05-10T15:56:23.638Z,0
2023-05-10T15:57:27.159Z,0
2023-05-10T15:58:20.615Z,0
2023-05-10T15:59:30.299Z,0
2023-05-10T16:00:23.500Z,0
2023-05-10T16:01:22.525Z,0
2023-05-10T16:02:35.720Z,0
2023-05-10T16:03:28.970Z,0
2023-05-10T16:04:26.057Z,0
2023-05-10T16:05:20.670Z,0
2023-05-10T16:06:33.626Z,0
2023-05-10T16:07:28.386Z,0
2023-05-10T16:08:23.540Z,0
2023-05-10T16:09:32.355Z,0
2023-05-10T16:10:29.790Z,0
2023-05-10T16:11:24.377Z,0
2023-05-10T16:12:22.248Z,0
2023-05-10T16:13:31.951Z,0
2023-05-10T16:14:31.328Z,0
2023-05-10T16:15:25.347Z,0
2023-05-10T16:16:33.375Z,0
2023-05-10T16:17:28.351Z,0
2023-05-10T16:18:25.581Z,0
2023-05-10T16:19:20.537Z,0
2023-05-10T16:20:30.143Z,0
2023-05-10T16:21:27.742Z,0
2023-05-10T16:22:28.283Z,0
2023-05-10T16:23:21.049Z,0
2023-05-10T16:24:31.902Z,0
2023-05-10T16:25:24.373Z,0
2023-05-10T16:26:23.118Z,0
2023-05-10T16:27:33.265Z,0
2023-05-10T16:28:26.130Z,0
2023-05-10T16:29:24.587Z,0
2023-05-10T16:30:24.305Z,0
2023-05-10T16:31:28.931Z,0
2023-05-10T16:32:25.932Z,0
2023-05-10T16:33:20.378Z,0
2023-05-10T16:34:30.613Z,0
2023-05-10T16:35:28.141Z,0
2023-05-10T16:36:22.227Z,0
2023-05-10T16:37:28.132Z,0
2023-05-10T16:38:22.956Z,0
2023-05-10T16:39:24.147Z,0
2023-05-10T16:40:20.362Z,0
2023-05-10T16:41:31.665Z,0
2023-05-10T16:42:27.246Z,0
2023-05-10T16:43:25.986Z,0
2023-05-10T16:44:36.019Z,0
2023-05-10T16:45:23.288Z,0
2023-05-10T16:46:24.410Z,0
2023-05-10T16:47:21.756Z,0
2023-05-10T16:48:31.533Z,0
2023-05-10T16:49:28.357Z,0
2023-05-10T16:50:22.006Z,0
2023-05-10T16:51:35.259Z,0
2023-05-10T16:52:32.661Z,0
2023-05-10T16:53:24.414Z,0
2023-05-10T16:54:20.237Z,0
2023-05-10T16:55:30.827Z,0
2023-05-10T16:56:28.100Z,0
2023-05-10T16:57:22.526Z,0
2023-05-10T16:58:32.166Z,0
2023-05-10T16:59:33.982Z,0
2023-05-10T17:00:24.280Z,0
2023-05-10T17:01:21.344Z,0
2023-05-10T17:02:30.395Z,0
2023-05-10T17:03:24.842Z,0
2023-05-10T17:04:22.715Z,0
2023-05-10T17:05:21.038Z,0
2023-05-10T17:06:28.336Z,0
2023-05-10T17:07:26.173Z,0
2023-05-10T17:08:21.214Z,0
2023-05-10T17:09:30.911Z,0
2023-05-10T17:10:26.485Z,0
2023-05-10T17:11:25.387Z,0
2023-05-10T17:12:33.763Z,0
2023-05-10T17:13:28.362Z,0
2023-05-10T17:14:19.676Z,0
2023-05-10T17:15:21.057Z,0
2023-05-10T17:16:22.473Z,0
2023-05-10T17:17:28.296Z,0
2023-05-10T17:18:22.278Z,0
2023-05-10T17:19:32.193Z,0
2023-05-10T17:20:27.336Z,0
2023-05-10T17:21:24.313Z,0
2023-05-10T17:22:22.452Z,0
2023-05-10T17:23:23.664Z,0
2023-05-10T17:24:21.411Z,0
2023-05-10T17:25:22.512Z,0
2023-05-10T17:26:34.065Z,0
2023-05-10T17:27:28.711Z,0
2023-05-10T17:28:26.949Z,0
2023-05-10T17:29:20.515Z,0
2023-05-10T17:30:26.398Z,0
2023-05-10T17:31:27.545Z,0
2023-05-10T17:32:22.989Z,0
2023-05-10T17:33:34.343Z,0
2023-05-10T17:34:27.970Z,0
2023-05-10T17:35:25.503Z,0
2023-05-10T17:36:20.962Z,0
2023-05-10T17:37:27.593Z,0
2023-05-10T17:38:29.053Z,0
2023-05-10T17:39:22.198Z,0
2023-05-10T17:40:34.188Z,0
2023-05-10T17:41:28.258Z,0
2023-05-10T17:42:24.860Z,0
2023-05-10T17:43:20.859Z,0
2023-05-10T17:44:31.340Z,0
2023-05-10T17:45:27.285Z,0
2023-05-10T17:46:22.393Z,0
2023-05-10T17:47:33.382Z,0
2023-05-10T17:48:25.831Z,0
2023-05-10T17:49:24.170Z,0
2023-05-10T17:50:22.329Z,0
2023-05-10T17:51:32.797Z,0
2023-05-10T17:52:26.614Z,0
2023-05-10T17:53:24.540Z,0
2023-05-10T17:54:25.107Z,0
2023-05-10T17:55:28.505Z,0
2023-05-10T17:56:27.375Z,0
2023-05-10T17:57:20.221Z,0
2023-05-10T17:58:30.175Z,0
2023-05-10T17:59:23.455Z,0
2023-05-10T18:00:22.564Z,0
2023-05-10T18:01:21.468Z,0
2023-05-10T18:02:19.405Z,0
2023-05-10T18:03:24.584Z,0
2023-05-10T18:04:36.139Z,0
2023-05-10T18:05:27.678Z,0
2023-05-10T18:06:41.236Z,0
2023-05-10T18:07:24.853Z,0
2023-05-10T18:08:26.421Z,0
2023-05-10T18:09:24.111Z,0
2023-05-10T18:10:21.308Z,0
2023-05-10T18:11:21.662Z,0
2023-05-10T18:12:30.667Z,0
2023-05-10T18:13:27.867Z,0
2023-05-10T18:14:40.947Z,0
2023-05-10T18:15:29.199Z,0
